KMTH/MTH METAR and TAF weather

Enter ICAO airport designator
Station Type Date Time Source
KMTH METAR 2019/09/21 21:30 UTC NOAA

KMTH 212130Z AUTO 06016G25KT 3SM -RA BR FEW013 BKN035 BKN047 26/24 A2997 RMK AO2 PK WND 06028/2116 RAE00B16 P0004 T02610239


Station Type Date Time Source
KMTH Decoded METAR 2019/09/21 21:30 UTC NOAA

MARATHON AIRPORT, FL, United States (KMTH) 24-44N 81-03W 2M
Sep 21, 2019 - 05:30 PM EDT / 2019.09.21 2130 UTC
Wind: from the ENE (060 degrees) at 18 MPH (16 KT) gusting to 29 MPH (25 KT):0
Visibility: 3 mile(s):0
Sky conditions: mostly cloudy
Weather: light rain; mist
Precipitation last hour: 0.04 inches
Temperature: 79.0 F (26.1 C)
Dew Point: 75.0 F (23.9 C)
Relative Humidity: 87%
Pressure (altimeter): 29.97 in. Hg (1014 hPa)
ob: KMTH 212130Z AUTO 06016G25KT 3SM -RA BR FEW013 BKN035 BKN047 26/24 A2997 RMK AO2 PK WND 06028/2116 RAE00B16 P0004 T02610239
cycle: 21

Station Type Date Time Source
KMTH TAF 2019/09/21 18:39 UTC NOAA

TAF KMTH 211736Z 2118/2218 06020G27KT P6SM VCSH SCT020 BKN050 OVC200
TEMPO 2118/2122 09022G33KT 1SM +SHRA SCT015 BKN025

Example: see airport list